Time;durP1;ratioP1;P1;durP2;ratioP2;P2;SDS_P1;SDS_P2;PMS_P1;PMS_P2;Temp;Humidity;BMP_temperature;BMP_pressure;BME280_temperature;BME280_humidity;BME280_pressure;Samples;Min_cycle;Max_cycle;Signal;HPM_P1;HPM_P2
2022/07/21 00:01:31;;;;;;;5.13;3.25;;;23.90;65.30;;;23.37;70.10;96237.16;4947304;28;20031;-69
2022/07/21 00:03:57;;;;;;;5.30;2.90;;;23.80;66.30;;;23.30;71.06;96247.34;4930336;28;20649;-69
2022/07/21 00:06:23;;;;;;;4.53;3.58;;;23.80;66.20;;;23.28;70.95;96262.91;4948471;28;20047;-67
2022/07/21 00:08:49;;;;;;;5.32;3.55;;;23.80;66.60;;;23.23;70.98;96267.19;4914441;28;20056;-67
2022/07/21 00:11:15;;;;;;;3.90;3.03;;;23.70;65.90;;;23.14;70.55;96274.16;4946232;28;20035;-67
2022/07/21 00:13:41;;;;;;;3.30;3.00;;;23.70;65.60;;;23.08;71.43;96272.50;4913325;28;20039;-67
2022/07/21 00:16:07;;;;;;;5.45;3.10;;;23.60;66.30;;;23.07;71.40;96262.84;4932223;28;20070;-70
2022/07/21 00:18:33;;;;;;;4.53;3.55;;;23.60;66.00;;;22.99;72.21;96247.28;4945664;28;20531;-70
2022/07/21 00:20:59;;;;;;;6.13;3.55;;;23.60;66.20;;;22.95;72.40;96256.91;4942304;28;20047;-69
2022/07/21 00:23:25;;;;;;;6.78;3.60;;;23.50;67.10;;;22.87;73.37;96258.25;4945978;28;20035;-69
2022/07/21 00:25:51;;;;;;;6.55;3.58;;;23.40;67.70;;;22.80;73.58;96252.25;4960501;28;20038;-69
2022/07/21 00:28:17;;;;;;;5.20;3.38;;;23.30;67.30;;;22.74;74.03;96252.50;4946121;28;20039;-69
2022/07/21 00:30:43;;;;;;;7.30;3.90;;;23.30;68.10;;;22.71;74.62;96247.69;4911227;28;20039;-69
2022/07/21 00:33:09;;;;;;;7.10;3.65;;;23.30;68.00;;;22.67;73.99;96251.97;4947086;28;20040;-69
2022/07/21 00:35:35;;;;;;;4.20;3.00;;;23.20;66.90;;;22.68;73.49;96266.97;4912761;28;20553;-67
2022/07/21 00:38:01;;;;;;;5.32;3.38;;;23.30;66.80;;;22.66;73.95;96266.44;4931760;28;20046;-67
2022/07/21 00:40:27;;;;;;;5.70;3.40;;;23.20;67.30;;;22.66;74.27;96271.81;4960630;28;20043;-69
2022/07/21 00:42:53;;;;;;;5.38;3.55;;;23.30;67.30;;;22.68;74.27;96275.03;4944344;28;20538;-69
2022/07/21 00:45:19;;;;;;;4.75;3.45;;;23.20;67.50;;;22.62;74.11;96304.47;4947649;28;20039;-69
2022/07/21 00:47:45;;;;;;;6.60;3.80;;;23.10;67.60;;;22.52;74.57;96320.50;4944747;28;20509;-69
2022/07/21 00:50:14;;;;;;;5.30;3.85;;;22.90;68.70;;;22.45;74.92;96325.31;4945317;28;20087;-70
2022/07/21 00:52:40;;;;;;;5.60;3.55;;;22.80;68.90;;;22.40;75.14;96317.19;4916536;29;20047;-69
2022/07/21 00:55:06;;;;;;;5.85;4.10;;;22.80;69.20;;;22.30;75.96;96327.88;4944900;28;20061;-69
2022/07/21 00:57:32;;;;;;;5.82;3.95;;;22.60;69.90;;;22.21;76.42;96316.03;4945650;28;20058;-69
2022/07/21 00:59:57;;;;;;;5.35;3.60;;;22.60;69.70;;;22.14;76.50;96318.09;4961129;28;20043;-69
2022/07/21 01:02:26;;;;;;;5.93;3.97;;;22.50;69.70;;;22.08;76.35;96313.78;4946424;28;20050;-69
2022/07/21 01:04:52;;;;;;;3.35;2.70;;;22.50;69.50;;;22.04;75.96;96320.69;4927278;28;20118;-70
2022/07/21 01:07:19;;;;;;;5.43;3.70;;;22.40;69.30;;;22.00;76.05;96329.22;4946442;28;20031;-67
2022/07/21 01:09:45;;;;;;;5.63;3.78;;;22.50;69.20;;;21.94;75.77;96321.38;4912151;29;20902;-67
2022/07/21 01:12:11;;;;;;;5.22;3.63;;;22.40;69.10;;;21.94;77.37;96324.88;4946146;28;20032;-67
2022/07/21 01:14:38;;;;;;;5.68;3.53;;;22.40;69.40;;;21.89;76.67;96319.47;4940154;28;20071;-68
2022/07/21 01:17:04;;;;;;;6.57;3.95;;;22.30;69.60;;;21.87;77.32;96321.59;4944119;28;20047;-67
2022/07/21 01:19:30;;;;;;;4.90;3.78;;;22.40;69.60;;;21.84;76.81;96316.75;4946318;28;20039;-70
2022/07/21 01:21:56;;;;;;;8.68;3.70;;;22.40;69.60;;;21.83;77.27;96327.72;4929596;28;20039;-67
2022/07/21 01:24:22;;;;;;;6.03;4.03;;;22.30;69.40;;;21.81;77.50;96324.50;4949139;28;20090;-68
2022/07/21 01:26:50;;;;;;;5.10;4.13;;;22.30;69.60;;;21.78;77.98;96322.34;4946750;28;20046;-67
2022/07/21 01:29:17;;;;;;;5.38;3.78;;;22.30;70.20;;;21.75;78.84;96326.34;4949514;28;20047;-67
2022/07/21 01:31:45;;;;;;;8.30;4.55;;;22.20;70.50;;;21.76;79.34;96327.13;4917194;28;20075;-68
2022/07/21 01:34:12;;;;;;;5.68;4.25;;;22.30;70.60;;;21.71;79.53;96309.13;4963892;28;20118;-68
2022/07/21 01:36:37;;;;;;;7.78;5.07;;;22.20;71.00;;;21.69;79.18;96321.97;4912891;28;20032;-68
2022/07/21 01:41:49;;;;;;;6.78;4.40;;;22.30;71.30;;;21.72;80.43;96310.75;4950768;28;20085;-67
2022/07/21 01:44:15;;;;;;;6.50;4.60;;;22.40;71.40;;;21.73;81.04;96296.31;4948848;28;20503;-67
2022/07/21 01:46:47;;;;;;;6.57;4.38;;;22.30;71.60;;;21.71;82.36;96291.19;4918137;29;20054;-66
2022/07/21 01:49:15;;;;;;;7.45;4.32;;;22.30;72.10;;;21.73;81.25;96296.31;4926508;28;20145;-67
2022/07/21 01:51:41;;;;;;;6.10;4.45;;;22.30;72.30;;;21.76;82.17;96295.00;4935616;28;20066;-66
2022/07/21 01:54:08;;;;;;;8.02;4.68;;;22.50;72.30;;;21.78;82.34;96299.03;4944146;28;20062;-67
2022/07/21 01:56:35;;;;;;;7.03;4.75;;;22.60;72.30;;;21.83;83.39;96296.41;4947874;28;20035;-67
2022/07/21 01:59:01;;;;;;;6.38;4.72;;;22.60;72.70;;;21.85;83.73;96294.28;4915675;28;20473;-66
2022/07/21 02:01:28;;;;;;;5.75;4.80;;;22.60;72.60;;;21.88;83.42;96312.50;4930771;28;20162;-67
2022/07/21 02:03:58;;;;;;;7.18;4.75;;;22.60;72.70;;;21.86;84.58;96314.63;4947179;28;20042;-67
2022/07/21 02:06:24;;;;;;;;;;;22.60;72.80;;;21.85;86.40;96307.66;4947784;28;20052;-67
2022/07/21 02:08:50;;;;;;;6.05;4.45;;;22.50;73.20;;;21.82;83.95;96318.09;4962489;28;19929;-67
2022/07/21 02:11:16;;;;;;;6.50;4.88;;;22.50;73.80;;;21.82;84.76;96318.88;4948988;28;20050;-67
2022/07/21 02:13:42;;;;;;;8.85;4.43;;;22.40;73.70;;;21.82;85.32;96318.09;4913430;28;20466;-67
2022/07/21 02:16:08;;;;;;;11.77;5.13;;;22.50;73.40;;;21.82;85.18;96308.19;4948223;28;20463;-67
2022/07/21 02:18:35;;;;;;;8.63;5.13;;;22.50;73.30;;;21.81;85.26;96303.88;4944880;28;20034;-67
2022/07/21 02:21:01;;;;;;;7.55;4.93;;;22.50;73.40;;;21.80;85.39;96307.63;4946619;28;20521;-67
2022/07/21 02:23:27;;;;;;;14.40;4.72;;;22.50;73.50;;;21.82;86.08;96304.69;4964376;28;20043;-67
2022/07/21 02:25:53;;;;;;;8.63;4.95;;;22.60;73.40;;;21.78;86.24;96304.41;4946555;28;20047;-67
2022/07/21 02:28:20;;;;;;;7.15;4.88;;;22.40;73.70;;;21.75;86.54;96315.63;4946449;28;20045;-67
2022/07/21 02:30:46;;;;;;;6.40;4.70;;;22.40;73.90;;;21.74;86.65;96308.66;4946118;28;20047;-66
2022/07/21 02:33:12;;;;;;;7.63;4.97;;;22.40;74.20;;;21.73;87.41;96322.25;4961720;28;20043;-67
2022/07/21 02:35:38;;;;;;;7.60;4.78;;;22.40;74.30;;;21.74;86.92;96323.91;4928753;28;20050;-67
2022/07/21 02:38:04;;;;;;;8.35;5.10;;;22.40;74.30;;;21.75;87.42;96330.88;4946329;28;20418;-66
2022/07/21 02:40:30;;;;;;;7.07;5.40;;;22.40;74.50;;;21.73;87.45;96333.81;4946543;28;20594;-67
2022/07/21 02:42:56;;;;;;;7.30;5.47;;;22.40;74.40;;;21.69;88.10;96338.03;4933713;28;20141;-66
2022/07/21 02:45:22;;;;;;;10.88;5.50;;;22.40;74.70;;;21.66;87.62;96334.00;4947474;28;20106;-66
2022/07/21 02:48:02;;;;;;;9.02;4.82;;;22.30;74.70;;;21.67;90.31;96334.81;4913401;28;20133;-66
2022/07/21 02:50:31;;;;;;;8.30;5.13;;;22.40;74.90;;;21.65;88.17;96329.72;4947959;28;20578;-66
2022/07/21 02:53:02;;;;;;;8.95;6.18;;;22.30;74.90;;;21.63;88.93;96326.47;4945617;28;20125;-67
2022/07/21 02:55:28;;;;;;;9.65;7.25;;;22.30;75.00;;;21.64;89.88;96324.59;4961203;28;20055;-66
2022/07/21 02:58:15;;;;;;;8.98;5.53;;;22.30;75.40;;;21.64;91.21;96329.97;4914295;28;20489;-66
2022/07/21 03:00:44;;;;;;;7.10;5.93;;;22.30;75.30;;;21.59;90.20;96316.53;4943537;28;20143;-66
2022/07/21 03:03:13;;;;;;;11.95;9.60;;;22.20;75.60;;;21.59;89.81;96311.19;4929822;28;20046;-67
2022/07/21 03:05:39;;;;;;;13.88;11.75;;;22.30;75.40;;;21.60;90.25;96307.44;4899639;29;20082;-67
2022/07/21 03:08:05;;;;;;;17.10;14.00;;;22.40;75.20;;;21.61;90.20;96304.50;4929331;28;20035;-67
2022/07/21 03:10:31;;;;;;;8.13;5.55;;;22.40;75.10;;;21.63;90.35;96293.53;4947537;28;20039;-66
2022/07/21 03:12:57;;;;;;;8.68;6.07;;;22.40;75.00;;;21.62;89.31;96283.91;4946830;28;20055;-67
2022/07/21 03:15:23;;;;;;;7.38;5.78;;;22.40;74.70;;;21.61;89.88;96288.44;4947476;28;20538;-68
2022/07/21 03:17:48;;;;;;;7.68;4.90;;;22.40;74.80;;;21.58;90.42;96309.56;4931178;28;20044;-68
2022/07/21 03:20:14;;;;;;;7.43;5.20;;;22.20;74.80;;;;;;4947252;28;20041;-67
2022/07/21 03:22:40;;;;;;;9.82;8.82;;;22.20;75.00;;;21.56;89.85;96306.34;4946413;28;20047;-67
2022/07/21 03:25:06;;;;;;;9.85;7.13;;;22.30;74.80;;;;;;4943559;28;20514;-67
2022/07/21 03:27:35;;;;;;;9.48;7.20;;;22.30;74.90;;;21.50;90.06;96312.69;4945624;28;20042;-67
2022/07/21 03:30:04;;;;;;;6.93;5.60;;;22.10;75.30;;;21.47;90.40;96302.47;4929647;28;20105;-66
2022/07/21 03:32:30;;;;;;;7.13;6.03;;;22.10;75.50;;;21.45;90.53;96301.94;4947362;28;20043;-67
2022/07/21 03:34:55;;;;;;;7.85;5.78;;;22.10;75.30;;;21.44;90.08;96311.00;4929188;28;20480;-67
2022/07/21 03:37:21;;;;;;;7.65;6.65;;;22.10;75.20;;;21.40;90.55;96311.53;4930935;28;20039;-67
2022/07/21 03:39:47;;;;;;;7.82;6.30;;;22.10;75.60;;;21.42;90.57;96310.47;4912857;28;20578;-67
2022/07/21 03:42:12;;;;;;;7.20;5.50;;;22.10;75.40;;;21.42;91.10;96316.63;4915334;28;20067;-68
2022/07/21 03:44:38;;;;;;;9.57;6.40;;;22.20;75.40;;;21.41;91.50;96323.03;4931357;28;20577;-70
2022/07/21 03:47:04;;;;;;;10.05;6.20;;;22.10;75.50;;;21.43;91.46;96322.78;4930097;28;20035;-68
2022/07/21 03:49:30;;;;;;;7.13;5.65;;;22.10;75.70;;;21.44;91.73;96325.22;4944746;28;20070;-69
2022/07/21 03:51:55;;;;;;;9.57;6.63;;;22.20;75.80;;;21.42;92.04;96321.16;4944453;28;20153;-70
2022/07/21 03:54:21;;;;;;;7.70;6.18;;;22.10;76.10;;;21.40;92.36;96324.91;4930526;28;20519;-69
2022/07/21 03:56:47;;;;;;;10.07;6.10;;;22.10;76.40;;;21.40;93.02;96314.19;4914474;28;20035;-69
2022/07/21 03:59:13;;;;;;;8.75;7.03;;;22.20;76.20;;;21.42;92.85;96315.81;4930773;28;20078;-71
2022/07/21 04:01:38;;;;;;;8.45;7.50;;;22.20;75.90;;;21.42;93.41;96315.81;4909197;29;20244;-67
2022/07/21 04:04:04;;;;;;;8.90;7.60;;;22.20;76.30;;;21.45;92.55;96328.69;4914128;28;20038;-70
2022/07/21 04:06:30;;;;;;;7.60;6.80;;;22.20;76.10;;;21.45;93.35;96348.22;4948891;28;20027;-69
2022/07/21 04:08:56;;;;;;;9.55;7.78;;;22.10;76.30;;;21.36;93.43;96361.25;4915065;28;20051;-68
2022/07/21 04:11:22;;;;;;;10.75;8.05;;;22.00;77.10;;;21.33;93.62;96355.59;4947164;28;20046;-69
2022/07/21 04:13:47;;;;;;;12.30;8.20;;;22.00;77.30;;;21.28;94.08;96353.69;4939802;28;20031;-69
2022/07/21 04:16:13;;;;;;;13.35;8.35;;;21.90;77.50;;;21.25;95.05;96343.47;4948117;28;20658;-68
2022/07/21 04:18:39;;;;;;;9.57;8.30;;;21.90;77.70;;;21.19;95.23;96352.47;4961253;28;20058;-69
2022/07/21 04:21:05;;;;;;;9.98;8.98;;;21.80;78.10;;;21.18;95.38;96348.16;4948033;28;20046;-69
2022/07/21 04:23:31;;;;;;;11.57;9.23;;;21.80;78.00;;;21.19;95.88;96360.50;4944662;28;20388;-70
2022/07/21 04:25:57;;;;;;;10.48;9.48;;;21.80;78.10;;;21.19;96.11;96363.16;4944124;28;20047;-69
2022/07/21 04:28:22;;;;;;;12.13;10.77;;;21.90;78.10;;;21.18;96.43;96358.88;4944154;28;20062;-69
2022/07/21 04:30:48;;;;;;;10.82;9.57;;;21.80;78.30;;;21.16;97.02;96377.03;4946355;28;20130;-69
2022/07/21 04:33:14;;;;;;;12.40;9.75;;;21.80;78.60;;;21.15;97.29;96369.25;4963261;28;20047;-69
2022/07/21 04:35:40;;;;;;;11.48;9.93;;;21.90;78.30;;;21.17;97.28;96378.66;4932635;29;20050;-69
2022/07/21 04:38:05;;;;;;;12.20;10.95;;;21.90;78.20;;;21.17;97.43;96389.34;4912395;29;20075;-69
2022/07/21 04:40:31;;;;;;;16.05;13.82;;;22.00;78.10;;;21.19;96.84;96381.88;4943535;28;20059;-69
2022/07/21 04:42:57;;;;;;;15.73;11.20;;;22.00;78.00;;;21.19;97.17;96395.25;4932692;28;20042;-68
2022/07/21 04:45:23;;;;;;;11.75;10.55;;;22.00;77.90;;;21.20;97.27;96388.84;4948779;28;20043;-68
2022/07/21 04:47:51;;;;;;;13.32;10.43;;;22.00;77.80;;;21.17;96.95;96384.00;4925824;28;20047;-69
2022/07/21 04:50:20;;;;;;;12.70;10.23;;;21.80;78.20;;;21.18;98.23;96385.63;4935132;28;20038;-69
2022/07/21 04:52:46;;;;;;;13.93;10.63;;;22.00;77.90;;;21.20;98.09;96388.84;4930008;28;20039;-68
2022/07/21 04:55:12;;;;;;;11.63;10.48;;;22.10;77.80;;;21.25;97.65;96386.28;4954652;28;20418;-69
2022/07/21 04:57:40;;;;;;;15.57;11.00;;;22.10;77.50;;;21.26;97.65;96397.78;4954813;28;20035;-69
2022/07/21 05:00:08;;;;;;;13.30;10.30;;;22.10;77.50;;;21.28;97.76;96399.16;4946773;28;20036;-69
2022/07/21 05:02:34;;;;;;;13.98;10.25;;;22.10;77.40;;;21.32;98.07;96402.97;4965682;28;20039;-69
2022/07/21 05:05:01;;;;;;;15.20;11.60;;;22.20;77.40;;;21.31;97.88;96406.69;4947115;28;20495;-68
2022/07/21 05:07:27;;;;;;;12.60;9.95;;;22.10;77.60;;;21.31;97.86;96411.25;4947959;28;20460;-71
2022/07/21 05:09:53;;;;;;;13.65;10.98;;;22.10;77.80;;;21.32;97.56;96416.34;4917184;29;20038;-67
2022/07/21 05:12:18;;;;;;;12.40;11.20;;;22.10;77.80;;;21.32;97.62;96424.38;4931772;28;20036;-67
2022/07/21 05:14:44;;;;;;;13.93;11.10;;;22.10;77.80;;;21.33;98.13;96417.16;4931082;28;20040;-68
2022/07/21 05:17:10;;;;;;;13.15;11.05;;;22.20;77.70;;;21.37;98.08;96421.75;4962577;28;20043;-68
2022/07/21 05:19:35;;;;;;;12.27;11.00;;;22.20;77.70;;;21.36;98.27;96430.03;4956903;28;20383;-68
2022/07/21 05:22:01;;;;;;;13.85;10.98;;;22.20;77.50;;;21.37;98.11;96428.97;4964479;28;20553;-68
2022/07/21 05:24:27;;;;;;;14.43;10.93;;;22.30;77.10;;;21.38;97.78;96420.69;4947852;28;20668;-72
2022/07/21 05:26:53;;;;;;;12.93;11.35;;;22.30;77.30;;;21.40;97.63;96431.94;4941919;28;20062;-66
2022/07/21 05:29:18;;;;;;;13.80;11.48;;;22.30;77.20;;;21.44;97.73;96436.81;4926574;28;20582;-64
2022/07/21 05:31:44;;;;;;;12.30;11.00;;;22.40;77.00;;;21.46;97.73;96435.50;4947540;28;20035;-69
2022/07/21 05:34:10;;;;;;;13.88;10.57;;;22.50;76.90;;;21.48;97.58;96432.56;4915398;28;20110;-71
2022/07/21 05:36:36;;;;;;;14.90;12.82;;;22.40;77.00;;;21.46;97.61;96442.72;4919592;28;20060;-72
2022/07/21 05:39:02;;;;;;;16.90;15.13;;;22.40;77.10;;;21.48;97.91;96444.09;4960812;28;20399;-69
2022/07/21 05:41:28;;;;;;;13.90;11.75;;;22.50;77.10;;;21.53;98.22;96440.69;4947568;28;20041;-69
2022/07/21 05:43:54;;;;;;;12.48;10.95;;;22.60;76.70;;;21.60;97.67;96443.97;4915552;28;20039;-70
2022/07/21 05:46:19;;;;;;;12.18;10.98;;;22.60;76.60;;;21.62;97.59;96441.84;4927298;28;20639;-67
2022/07/21 05:48:45;;;;;;;15.45;11.52;;;22.60;76.30;;;21.64;97.18;96440.53;4941638;28;20551;-70
2022/07/21 05:51:11;;;;;;;13.30;11.68;;;22.70;76.00;;;21.74;96.88;96445.22;4929970;28;20525;-68
2022/07/21 05:53:37;;;;;;;13.35;11.40;;;22.90;75.80;;;21.81;96.50;96439.66;4931307;28;20038;-69
2022/07/21 05:56:02;;;;;;;12.88;11.43;;;22.90;75.40;;;21.84;96.92;96442.63;4936045;28;20504;-67
2022/07/21 05:58:28;;;;;;;16.60;11.10;;;23.00;75.10;;;21.92;96.90;96455.56;4929964;29;20598;-71
2022/07/21 06:01:09;;;;;;;14.27;11.07;;;23.10;75.20;;;21.99;96.42;96455.38;4930051;28;20039;-72
2022/07/21 06:03:43;;;;;;;12.48;11.18;;;23.10;74.60;;;22.05;95.80;96458.94;4947124;28;20031;-69
2022/07/21 06:06:10;;;;;;;13.50;11.13;;;23.10;74.50;;;22.10;94.84;96459.00;4900071;29;20842;-69
2022/07/21 06:08:37;;;;;;;12.27;10.85;;;23.30;74.00;;;22.16;94.47;96463.34;4946095;28;20099;-70
2022/07/21 06:11:03;;;;;;;12.65;11.10;;;23.40;74.00;;;22.25;94.94;96464.50;4901658;28;20510;-71
2022/07/21 06:13:29;;;;;;;12.02;10.80;;;23.40;73.80;;;22.34;93.73;96473.69;4933605;28;20133;-69
2022/07/21 06:15:55;;;;;;;12.45;10.73;;;23.60;72.90;;;22.38;93.37;96468.63;4933155;28;20510;-71
2022/07/21 06:18:20;;;;;;;11.00;9.90;;;23.50;72.80;;;22.47;91.69;96473.28;4929156;29;20062;-71
2022/07/21 06:20:46;;;;;;;14.00;10.85;;;23.60;72.30;;;22.51;91.65;96474.41;4917417;28;20039;-69
2022/07/21 06:23:12;;;;;;;11.75;10.40;;;23.70;71.40;;;22.54;90.98;96473.88;4932636;28;20067;-68
2022/07/21 06:25:38;;;;;;;14.00;11.38;;;23.60;71.90;;;22.55;90.47;96480.84;4918607;29;20070;-70
2022/07/21 06:28:03;;;;;;;13.77;10.68;;;23.60;71.70;;;22.54;90.37;96484.59;4912583;28;20119;-70
2022/07/21 06:30:29;;;;;;;11.55;10.13;;;23.50;71.90;;;22.55;90.14;96480.84;4948625;28;20041;-70
2022/07/21 06:32:55;;;;;;;11.60;10.07;;;23.60;71.90;;;22.58;89.72;96496.44;4946464;28;20055;-69
2022/07/21 06:35:21;;;;;;;12.90;10.40;;;23.60;72.00;;;22.59;90.02;96498.03;4952785;28;20161;-70
2022/07/21 06:37:46;;;;;;;12.73;10.55;;;23.70;71.40;;;22.60;89.35;96494.31;4935511;29;20039;-71
2022/07/21 06:40:13;;;;;;;11.13;9.68;;;23.70;71.20;;;22.63;88.61;96495.66;4950703;28;20027;-72
2022/07/21 06:42:38;;;;;;;12.15;10.68;;;23.70;70.90;;;22.64;89.13;96504.53;4949947;28;20126;-72
2022/07/21 06:45:04;;;;;;;10.95;9.93;;;23.70;71.30;;;22.66;88.80;96505.91;4950015;28;20066;-70
2022/07/21 06:47:30;;;;;;;10.82;9.73;;;23.70;70.90;;;22.70;88.83;96500.84;4952720;28;20067;-71
2022/07/21 06:49:57;;;;;;;13.00;10.13;;;23.80;71.00;;;22.76;88.28;96507.84;4948729;28;20105;-69
2022/07/21 06:52:23;;;;;;;12.77;9.57;;;24.00;70.40;;;22.81;88.04;96510.56;4933937;28;20042;-71
2022/07/21 06:54:49;;;;;;;12.55;9.82;;;24.10;69.60;;;22.87;87.45;96509.59;4948183;28;20043;-70
2022/07/21 06:57:14;;;;;;;18.10;10.20;;;24.10;69.40;;;22.92;86.92;96509.63;4964933;28;20043;-71
2022/07/21 06:59:40;;;;;;;13.93;10.20;;;24.10;69.50;;;22.97;86.79;96512.34;4945392;28;20133;-69
2022/07/21 07:02:06;;;;;;;16.92;9.70;;;24.20;69.40;;;23.04;86.63;96506.75;4932449;29;20063;-70
2022/07/21 07:04:32;;;;;;;10.48;9.40;;;24.30;69.20;;;23.07;86.49;96498.97;4949314;28;20027;-69
2022/07/21 07:06:57;;;;;;;12.35;10.25;;;24.30;68.80;;;23.09;85.97;96510.28;4964740;28;20066;-69
2022/07/21 07:09:23;;;;;;;13.88;10.35;;;24.20;68.50;;;23.04;85.36;96512.91;4932089;29;20055;-68
2022/07/21 07:11:52;;;;;;;13.05;9.98;;;24.10;68.70;;;22.96;85.01;96518.75;4948314;28;20146;-67
2022/07/21 07:14:18;;;;;;;10.68;9.57;;;24.00;69.10;;;22.93;84.85;96513.91;4960349;28;20126;-71
2022/07/21 07:16:44;;;;;;;10.98;9.88;;;23.80;69.30;;;22.94;85.03;96512.84;4933679;28;20042;-70
2022/07/21 07:19:10;;;;;;;11.70;9.23;;;24.00;69.00;;;22.97;84.32;96509.66;4950497;28;20039;-68
2022/07/21 07:21:36;;;;;;;11.95;9.52;;;24.20;68.30;;;23.00;84.24;96514.50;4933753;28;20054;-70
2022/07/21 07:24:02;;;;;;;11.90;10.18;;;24.20;68.00;;;23.00;84.29;96514.50;4917534;29;20510;-68
2022/07/21 07:26:28;;;;;;;14.07;10.55;;;24.10;68.00;;;23.00;83.67;96521.75;4949020;28;20511;-68
2022/07/21 07:28:54;;;;;;;11.00;9.82;;;24.10;68.10;;;23.01;83.42;96510.75;4963395;28;20040;-68
2022/07/21 07:31:20;;;;;;;11.15;10.00;;;24.10;68.00;;;23.08;83.62;96514.00;4948793;28;20038;-69
2022/07/21 07:33:45;;;;;;;12.82;11.02;;;24.30;67.80;;;23.14;82.78;96521.06;4917619;28;20147;-67
2022/07/21 07:36:12;;;;;;;14.35;12.10;;;24.40;67.50;;;23.15;82.97;96517.31;4964588;28;20043;-66
2022/07/21 07:38:39;;;;;;;15.55;10.73;;;24.30;67.40;;;23.18;83.12;96524.84;4918260;28;20034;-69
2022/07/21 07:41:05;;;;;;;13.07;11.68;;;24.40;67.50;;;23.16;82.00;96518.91;4948854;28;20039;-68
2022/07/21 07:43:30;;;;;;;17.42;11.73;;;24.10;67.20;;;23.17;81.87;96525.91;4948407;28;20114;-69
2022/07/21 07:45:56;;;;;;;12.52;11.23;;;24.30;67.50;;;23.19;82.01;96529.13;4964144;28;20047;-68
2022/07/21 07:48:22;;;;;;;14.18;11.63;;;24.30;67.40;;;23.13;82.72;96532.84;4930880;28;20125;-66
2022/07/21 07:50:48;;;;;;;16.00;11.98;;;24.10;67.90;;;23.14;82.70;96521.06;4964541;28;20043;-67
2022/07/21 07:53:13;;;;;;;13.50;12.07;;;24.30;67.60;;;23.18;82.53;96524.03;4932734;28;20452;-69
2022/07/21 07:55:39;;;;;;;14.25;11.27;;;24.40;67.40;;;23.23;82.47;96522.16;4948807;28;20589;-67
2022/07/21 07:58:05;;;;;;;12.05;10.85;;;24.60;67.30;;;23.35;82.07;96518.50;4947398;28;20051;-67
2022/07/21 08:00:31;;;;;;;13.20;11.10;;;24.70;66.80;;;23.44;82.41;96525.78;4947607;28;20242;-67
2022/07/21 08:02:56;;;;;;;11.85;10.65;;;24.80;66.10;;;23.47;81.68;96535.19;4964068;28;20039;-70
2022/07/21 08:05:22;;;;;;;12.93;11.48;;;24.80;65.80;;;23.50;81.28;96540.03;4948452;28;20047;-69
2022/07/21 08:07:48;;;;;;;12.82;11.15;;;24.80;66.10;;;23.53;81.27;96536.84;4944837;28;20044;-69
2022/07/21 08:10:14;;;;;;;14.82;11.02;;;24.70;66.30;;;23.59;81.45;96533.16;4931449;29;20051;-70
2022/07/21 08:12:40;;;;;;;13.30;10.90;;;25.00;65.90;;;23.69;81.46;96532.41;4916183;29;20049;-69
2022/07/21 08:15:06;;;;;;;14.57;11.20;;;25.10;65.50;;;23.81;81.17;96516.88;4946637;28;20051;-71
2022/07/21 08:17:32;;;;;;;12.32;11.02;;;25.40;65.00;;;23.98;79.80;96516.66;4915278;28;20046;-62
2022/07/21 08:19:58;;;;;;;12.70;10.48;;;25.60;63.50;;;24.12;79.94;96520.47;4966698;28;20042;-62
2022/07/21 08:22:23;;;;;;;11.18;9.60;;;25.80;63.20;;;24.27;78.86;96530.47;4932315;28;20058;-68
2022/07/21 08:24:49;;;;;;;10.52;9.35;;;26.10;62.50;;;24.41;78.46;96532.41;4944770;28;20038;-67
2022/07/21 08:27:15;;;;;;;10.95;9.85;;;26.10;62.30;;;24.50;77.24;96530.00;4947539;28;20073;-68
2022/07/21 08:29:40;;;;;;;11.18;9.43;;;26.10;60.60;;;24.55;75.99;96529.19;4947570;28;20070;-70
2022/07/21 08:32:06;;;;;;;13.80;8.93;;;26.10;60.30;;;24.59;75.28;96527.59;4945802;28;20035;-68
2022/07/21 08:34:32;;;;;;;7.88;6.85;;;26.10;61.00;;;24.61;75.65;96528.13;4947461;28;20439;-69
2022/07/21 08:36:58;;;;;;;10.70;9.57;;;26.10;60.90;;;24.59;74.49;96541.03;4949188;28;20070;-67
2022/07/21 08:39:24;;;;;;;9.90;8.65;;;25.90;61.10;;;24.59;74.98;96541.03;4942438;28;20028;-66
2022/07/21 08:41:51;;;;;;;10.20;9.02;;;25.90;61.40;;;24.59;74.43;96535.66;4944656;28;20035;-66
2022/07/21 08:44:16;;;;;;;11.75;9.80;;;25.90;61.30;;;24.56;73.96;96539.69;4947049;28;20591;-65
2022/07/21 08:46:42;;;;;;;9.95;8.93;;;25.80;61.30;;;24.53;74.25;96539.44;4947855;28;20039;-63
2022/07/21 08:49:09;;;;;;;11.05;9.75;;;25.80;61.30;;;24.51;74.43;96538.88;4949899;28;20077;-72
2022/07/21 08:51:36;;;;;;;11.13;8.57;;;25.70;61.40;;;24.54;73.95;96538.34;4951102;28;20085;-64
2022/07/21 08:54:02;;;;;;;11.45;9.13;;;25.90;61.40;;;24.60;74.17;96545.34;4916049;28;20035;-63
2022/07/21 08:56:28;;;;;;;10.18;9.13;;;26.00;61.40;;;24.63;74.25;96532.16;4963287;28;20047;-63
2022/07/21 08:58:54;;;;;;;11.00;9.77;;;26.10;61.70;;;24.65;74.19;96539.97;4949302;28;20043;-63
2022/07/21 09:01:23;;;;;;;12.27;9.45;;;26.10;61.20;;;24.63;74.53;96532.16;4961748;28;20051;-65
2022/07/21 09:03:52;;;;;;;11.18;9.13;;;26.00;61.80;;;24.68;74.57;96539.44;4917956;28;20043;-66
2022/07/21 09:06:18;;;;;;;12.95;9.60;;;26.10;61.60;;;24.74;74.63;96538.38;4919222;28;20107;-65
2022/07/21 09:08:51;;;;;;;10.80;9.10;;;26.30;61.40;;;24.82;75.02;96545.09;4932035;28;20047;-66
2022/07/21 09:11:30;;;;;;;10.98;9.52;;;26.30;61.40;;;24.87;74.47;96548.59;4947558;28;20978;-64
2022/07/21 09:14:07;;;;;;;11.25;10.13;;;26.30;61.40;;;24.93;74.14;96547.53;4944228;28;20063;-66
2022/07/21 09:16:44;;;;;;;13.10;10.43;;;26.40;61.40;;;24.95;73.54;96548.06;4946961;28;20058;-65
2022/07/21 09:19:38;;;;;;;10.80;9.70;;;26.40;61.10;;;24.93;73.66;96552.91;4947051;28;20511;-66
2022/07/21 09:22:14;;;;;;;12.75;10.13;;;26.40;61.20;;;24.94;73.91;96546.47;4943411;28;20414;-64
2022/07/21 09:24:40;;;;;;;11.85;9.88;;;26.20;60.90;;;24.90;73.57;96550.78;4962624;28;20070;-65
2022/07/21 09:27:15;;;;;;;11.63;9.88;;;26.20;60.70;;;24.90;73.25;96552.66;4946538;28;20128;-64
2022/07/21 09:29:51;;;;;;;11.60;9.25;;;26.10;61.10;;;24.86;72.69;96552.34;4949348;28;20058;-65
2022/07/21 09:32:37;;;;;;;14.40;10.75;;;26.00;61.20;;;24.82;71.91;96551.28;4947322;28;20512;-65
2022/07/21 09:35:06;;;;;;;11.38;10.20;;;25.90;60.90;;;24.75;72.11;96545.38;4943483;28;20126;-65
2022/07/21 09:37:32;;;;;;;11.27;10.02;;;25.80;60.70;;;24.70;72.15;96554.25;4931098;28;20114;-65
2022/07/21 09:40:19;;;;;;;12.52;10.25;;;25.80;61.00;;;24.64;72.01;96546.41;4946843;28;20035;-65
2022/07/21 09:42:49;;;;;;;10.85;9.50;;;25.70;61.10;;;24.60;72.32;96548.03;4963250;28;20043;-65
2022/07/21 09:45:16;;;;;;;10.77;9.63;;;25.80;61.20;;;24.55;72.45;96556.09;4934127;28;20035;-66
2022/07/21 09:47:42;;;;;;;15.43;10.32;;;25.70;61.20;;;24.51;72.72;96549.66;4949927;28;20122;-66
2022/07/21 09:50:10;;;;;;;11.07;9.25;;;25.70;61.50;;;24.50;73.06;96556.91;4950156;28;20035;-66
2022/07/21 09:52:38;;;;;;;11.00;9.75;;;25.70;61.50;;;24.52;72.73;96559.31;4966646;28;20034;-66
2022/07/21 09:55:09;;;;;;;11.55;10.35;;;25.80;61.70;;;24.51;73.71;96549.66;4949974;28;20113;-65
2022/07/21 09:57:35;;;;;;;11.85;10.60;;;25.70;62.00;;;24.51;73.89;96558.53;4936585;29;20082;-66
2022/07/21 10:00:04;;;;;;;15.32;11.80;;;25.80;62.60;;;24.50;73.60;96558.78;4948092;28;20122;-65
2022/07/21 10:02:31;;;;;;;14.02;11.48;;;25.60;62.50;;;24.43;74.00;96565.22;4934431;28;20038;-67
2022/07/21 10:05:04;;;;;;;15.82;12.43;;;25.60;63.10;;;24.39;74.97;96564.13;4947720;28;20035;-66
2022/07/21 10:07:30;;;;;;;32.45;12.32;;;25.50;63.20;;;24.30;74.88;96568.41;4950056;28;20067;-68
2022/07/21 10:09:56;;;;;;;13.98;10.98;;;25.40;63.60;;;24.21;74.29;96567.25;4949190;28;20047;-66
2022/07/21 10:12:22;;;;;;;12.57;10.85;;;25.20;63.40;;;24.08;74.39;96562.38;4950150;28;20043;-66
2022/07/21 10:14:48;;;;;;;12.40;10.95;;;25.00;63.40;;;24.00;73.48;96565.59;4963355;28;20054;-66